^^
Station Historical Data
Daily Summary for April 14, 2017 Units:  English    Metric   Both
« Previous Day
Next Day »
Daily Weekly Monthly Yearly Custom
  High: Low: Average:
Temperature: 65.1 °F 42.5 °F 53 °F
Dew Point: 35.5 °F 24.7 °F 30.6 °F
Humidity: 65% 22% 44%
Wind Speed: 5.0mph 0.0mph 0.9mph
Wind Gust: 10.0mph - -
Wind- - WSW
Pressure: 30.43 in 30.33 in -
Precipitation: 0.00 in    
Historical Graphs
 
 
Tabular Data for April 14, 2017
Time Temperature Dew Point Pressure Wind Wind Speed Wind Gust Humidity Rainfall Rate (Hourly) Conditions
00:00 49.8 °F 30.9 °F 30.38 in Calm   2.0 mph 48% 0.00 in CLR
00:15 48.6 °F 31.3 °F 30.37 in Calm     51% 0.00 in CLR
00:30 47.7 °F 31.4 °F 30.37 in Calm     53% 0.00 in CLR
00:45 47.2 °F 30.5 °F 30.37 in Calm     52% 0.00 in CLR
01:00 46.5 °F 29.8 °F 30.37 in Calm     52% 0.00 in CLR
02:15 45.8 °F 29.2 °F 30.37 in Calm   1.0 mph 52% 0.00 in CLR
02:30 45.5 °F 29.3 °F 30.37 in Calm   1.0 mph 53% 0.00 in CLR
02:45 45.7 °F 29.5 °F 30.38 in Calm     53% 0.00 in CLR
03:00 45.4 °F 29.7 °F 30.38 in Calm   2.0 mph 54% 0.00 in CLR
03:15 45.3 °F 30.1 °F 30.38 in Calm   2.0 mph 55% 0.00 in CLR
03:30 45.6 °F 29.9 °F 30.38 in Calm   3.0 mph 54% 0.00 in CLR
03:45 45.3 °F 29.6 °F 30.38 in Calm   1.0 mph 54% 0.00 in CLR
04:00 45.5 °F 29.3 °F 30.38 in Calm   2.0 mph 53% 0.00 in CLR
04:15 45.3 °F 29.6 °F 30.38 in Calm   3.0 mph 54% 0.00 in CLR
04:30 44.8 °F 29.6 °F 30.38 in Calm   1.0 mph 55% 0.00 in CLR
04:45 43.9 °F 29.2 °F 30.38 in Calm   1.0 mph 56% 0.00 in CLR
05:00 42.8 °F 29.0 °F 30.38 in Calm     58% 0.00 in CLR
05:15 42.5 °F 29.2 °F 30.38 in Calm   1.0 mph 59% 0.00 in CLR
05:30 42.5 °F 29.6 °F 30.39 in Calm   1.0 mph 60% 0.00 in CLR
05:45 43.2 °F 29.4 °F 30.39 in Calm   1.0 mph 58% 0.00 in CLR
06:00 44.1 °F 29.4 °F 30.39 in Calm   2.0 mph 56% 0.00 in CLR
06:15 43.8 °F 29.9 °F 30.40 in Calm   1.0 mph 58% 0.00 in BKN
06:30 43.8 °F 29.1 °F 30.41 in Calm   2.0 mph 56% 0.00 in BKN
06:45 43.7 °F 29.5 °F 30.41 in Calm   1.0 mph 57% 0.00 in BKN
07:00 43.3 °F 30.3 °F 30.41 in Calm   1.0 mph 60% 0.00 in BKN
07:15 43.7 °F 30.3 °F 30.41 in Calm   1.0 mph 59% 0.00 in SCT
07:30 44.6 °F 30.3 °F 30.42 in Calm   1.0 mph 57% 0.00 in SCT
07:45 45.5 °F 30.3 °F 30.42 in NW 1.0 mph 2.0 mph 55% 0.00 in SCT
08:00 46.1 °F 29.9 °F 30.42 in Calm   4.0 mph 53% 0.00 in SCT
08:15 46.4 °F 30.6 °F 30.42 in Calm   2.0 mph 54% 0.00 in BKN
08:30 47.5 °F 30.3 °F 30.42 in North 2.0 mph 4.0 mph 51% 0.00 in BKN
08:45 49.1 °F 30.3 °F 30.42 in North 1.0 mph 6.0 mph 48% 0.00 in BKN
09:00 50.7 °F 30.1 °F 30.43 in North 2.0 mph 5.0 mph 45% 0.00 in BKN
09:15 51.4 °F 31.2 °F 30.43 in Calm   5.0 mph 46% 0.00 in SCT
09:30 51.3 °F 32.8 °F 30.42 in Calm   4.0 mph 49% 0.00 in SCT
09:45 52.9 °F 31.0 °F 30.43 in NNW 1.0 mph 6.0 mph 43% 0.00 in SCT
10:00 53.4 °F 30.3 °F 30.43 in Calm   5.0 mph 41% 0.00 in SCT
10:15 54.6 °F 30.1 °F 30.43 in WNW 1.0 mph 4.0 mph 39% 0.00 in BKN
10:30 54.6 °F 30.7 °F 30.43 in Calm   6.0 mph 40% 0.00 in BKN
10:45 54.9 °F 31.0 °F 30.43 in Calm   4.0 mph 40% 0.00 in BKN
11:00 56.0 °F 30.8 °F 30.43 in South 2.0 mph 5.0 mph 38% 0.00 in BKN
11:15 57.0 °F 31.0 °F 30.43 in Calm   5.0 mph 37% 0.00 in BKN
11:30 58.0 °F 32.5 °F 30.43 in West 2.0 mph 5.0 mph 38% 0.00 in BKN
11:45 56.5 °F 31.8 °F 30.43 in WNW 3.0 mph 6.0 mph 39% 0.00 in BKN
12:00 56.7 °F 32.0 °F 30.42 in SW 1.0 mph 5.0 mph 39% 0.00 in BKN
12:15 57.9 °F 32.4 °F 30.42 in SSW 3.0 mph 7.0 mph 38% 0.00 in SCT
12:30 57.3 °F 31.9 °F 30.42 in West 2.0 mph 9.0 mph 38% 0.00 in SCT
12:45 56.9 °F 31.6 °F 30.41 in NW 2.0 mph 8.0 mph 38% 0.00 in SCT
13:00 58.3 °F 31.4 °F 30.41 in WSW 3.0 mph 7.0 mph 36% 0.00 in SCT
13:15 58.8 °F 31.9 °F 30.40 in SW 3.0 mph 8.0 mph 36% 0.00 in FEW
13:30 59.4 °F 30.3 °F 30.40 in SW 2.0 mph 9.0 mph 33% 0.00 in FEW
13:45 59.8 °F 30.6 °F 30.39 in WNW 1.0 mph 6.0 mph 33% 0.00 in FEW
14:00 60.6 °F 29.7 °F 30.39 in West 2.0 mph 8.0 mph 31% 0.00 in FEW
14:15 60.6 °F 29.7 °F 30.38 in WSW 5.0 mph 8.0 mph 31% 0.00 in FEW
14:30 60.6 °F 30.6 °F 30.37 in SW 1.0 mph 9.0 mph 32% 0.00 in FEW
14:45 60.7 °F 29.9 °F 30.37 in WSW 5.0 mph 9.0 mph 31% 0.00 in FEW
15:00 61.8 °F 30.8 °F 30.36 in West 3.0 mph 8.0 mph 31% 0.00 in FEW
15:15 61.3 °F 27.9 °F 30.36 in SW 2.0 mph 9.0 mph 28% 0.00 in FEW
15:30 61.6 °F 28.1 °F 30.35 in WSW 5.0 mph 8.0 mph 28% 0.00 in FEW
15:45 62.7 °F 30.0 °F 30.35 in West 3.0 mph 7.0 mph 29% 0.00 in FEW
16:00 63.5 °F 30.6 °F 30.34 in WNW 2.0 mph 7.0 mph 29% 0.00 in FEW
16:15 63.3 °F 27.8 °F 30.34 in NNW 1.0 mph 10.0 mph 26% 0.00 in FEW
16:30 63.4 °F 26.9 °F 30.34 in WNW 2.0 mph 7.0 mph 25% 0.00 in FEW
16:45 63.8 °F 26.3 °F 30.34 in NNW 1.0 mph 8.0 mph 24% 0.00 in FEW
17:00 64.1 °F 27.5 °F 30.34 in Calm   6.0 mph 25% 0.00 in FEW
17:15 63.7 °F 26.2 °F 30.33 in Calm   9.0 mph 24% 0.00 in CLR
17:30 64.4 °F 25.8 °F 30.33 in NW 2.0 mph 7.0 mph 23% 0.00 in CLR
17:45 65.1 °F 26.3 °F 30.33 in West 2.0 mph 4.0 mph 23% 0.00 in CLR
18:00 64.5 °F 26.9 °F 30.33 in Calm   5.0 mph 24% 0.00 in CLR
18:15 64.4 °F 24.7 °F 30.33 in WNW 1.0 mph 3.0 mph 22% 0.00 in CLR
18:30 64.6 °F 25.9 °F 30.33 in NNW 1.0 mph 3.0 mph 23% 0.00 in CLR
18:45 64.2 °F 25.6 °F 30.33 in Calm   3.0 mph 23% 0.00 in CLR
19:00 63.9 °F 26.4 °F 30.33 in Calm   3.0 mph 24% 0.00 in CLR
19:15 61.6 °F 32.2 °F 30.34 in South 1.0 mph 6.0 mph 33% 0.00 in CLR
19:30 59.5 °F 32.5 °F 30.34 in SSW 2.0 mph 6.0 mph 36% 0.00 in CLR
19:45 57.7 °F 34.2 °F 30.35 in South 1.0 mph 10.0 mph 41% 0.00 in CLR
20:00 56.5 °F 33.6 °F 30.35 in SSE 1.0 mph 7.0 mph 42% 0.00 in CLR
20:15 55.4 °F 33.8 °F 30.36 in South 1.0 mph 8.0 mph 44% 0.00 in CLR
20:30 54.5 °F 33.6 °F 30.37 in SW 1.0 mph 10.0 mph 45% 0.00 in CLR
20:45 53.7 °F 33.4 °F 30.38 in South 1.0 mph 7.0 mph 46% 0.00 in CLR
21:00 53.0 °F 34.4 °F 30.39 in South 1.0 mph 8.0 mph 49% 0.00 in CLR
21:15 52.2 °F 34.6 °F 30.39 in Calm   3.0 mph 51% 0.00 in CLR
21:30 51.4 °F 34.3 °F 30.40 in Calm   1.0 mph 52% 0.00 in CLR
21:45 50.6 °F 34.6 °F 30.40 in Calm   1.0 mph 54% 0.00 in CLR
22:00 50.3 °F 34.7 °F 30.40 in Calm     55% 0.00 in CLR
22:15 49.7 °F 35.1 °F 30.40 in Calm     57% 0.00 in CLR
22:30 48.9 °F 35.2 °F 30.41 in Calm     59% 0.00 in CLR
22:45 48.1 °F 35.3 °F 30.41 in Calm   1.0 mph 61% 0.00 in CLR
23:00 46.5 °F 35.3 °F 30.41 in Calm     65% 0.00 in CLR
23:15 46.7 °F 35.5 °F 30.41 in Calm     65% 0.00 in CLR
23:30 46.6 °F 35.4 °F 30.41 in Calm     65% 0.00 in CLR
23:45 46.4 °F 35.3 °F 30.41 in Calm     65% 0.00 in CLR
TarryTown NY Weather
Compliments of Weather Underground - 1.5 mb